Allred, Tennessee
Current Conditions -  °F | °C
As of 4:53 PM on Tuesday 25 Nov 2014 (Local Time) from KCSV Reporting Station
Clear Clear  
Wind Chill: 48°   Ceiling: Unl
Heat Index: 48°   Visibility: 10mi
Dew Point: 27°   Wind: 3mph
Humidity: 44%   Direction: 300°WNW
Pressure: 30.07"   Gusts: NA
Location:  36.33°N, 85.19°W
Report Text: KCSV 252253Z AUTO 30003KT 10SM CLR 09/M03 A3007 RMK AO2 SLP187 T00891028
Loading
Personal Weather Stations






























Interactive Weather Map New forecast layout! Learn more

10-Day Weather Forecast

Advertisements
Track Severe Weather on mobile